createdAt,value
2018-08-24T00:00:41.475Z,2.90
2018-08-24T00:03:10.211Z,2.53
2018-08-24T00:05:39.068Z,3.13
2018-08-24T00:08:07.854Z,2.40
2018-08-24T00:10:37.439Z,4.20
2018-08-24T00:13:07.467Z,2.40
2018-08-24T00:15:36.255Z,4.00
2018-08-24T00:18:05.862Z,3.20
2018-08-24T00:20:34.603Z,2.87
2018-08-24T00:23:03.336Z,2.80
2018-08-24T00:25:32.128Z,2.63
2018-08-24T00:28:00.917Z,3.17
2018-08-24T00:30:30.135Z,2.30
2018-08-24T00:32:59.678Z,3.50
2018-08-24T00:35:29.360Z,2.57
2018-08-24T00:37:58.327Z,5.13
2018-08-24T00:40:27.117Z,2.43
2018-08-24T00:42:57.117Z,3.57
2018-08-24T00:45:25.918Z,2.80
2018-08-24T00:47:54.805Z,3.43
2018-08-24T00:50:23.734Z,2.63
2018-08-24T00:52:53.501Z,3.50
2018-08-24T00:55:22.225Z,3.07
2018-08-24T00:57:51.903Z,3.80
2018-08-24T01:00:23.452Z,2.70
2018-08-24T01:02:52.300Z,3.43
2018-08-24T01:08:01.371Z,3.43
2018-08-24T01:10:30.285Z,2.90
2018-08-24T01:12:59.963Z,3.40
2018-08-24T01:15:34.416Z,2.80
2018-08-24T01:18:09.999Z,3.60
2018-08-24T01:20:38.842Z,3.40
2018-08-24T01:23:07.750Z,2.80
2018-08-24T01:25:36.516Z,2.93
2018-08-24T01:28:05.340Z,4.17
2018-08-24T01:30:35.274Z,3.13
2018-08-24T01:33:04.047Z,3.13
2018-08-24T01:35:33.579Z,3.00
2018-08-24T01:38:02.598Z,3.80
2018-08-24T01:40:31.405Z,4.07
2018-08-24T01:43:00.955Z,3.17
2018-08-24T01:45:29.929Z,3.83
2018-08-24T01:47:58.982Z,3.60
2018-08-24T01:50:27.815Z,3.60
2018-08-24T01:52:57.259Z,3.53
2018-08-24T01:55:26.012Z,3.80
2018-08-24T01:57:55.897Z,3.40
2018-08-24T02:00:24.732Z,4.10
2018-08-24T02:02:53.557Z,3.67
2018-08-24T02:05:22.464Z,4.43
2018-08-24T02:07:51.202Z,3.73
2018-08-24T02:10:26.693Z,4.23
2018-08-24T02:13:01.831Z,4.50
2018-08-24T02:15:30.876Z,4.87
2018-08-24T02:18:05.575Z,4.90
2018-08-24T02:20:39.524Z,5.37
2018-08-24T02:23:13.071Z,5.17
2018-08-24T02:25:42.128Z,6.13
2018-08-24T02:28:11.071Z,5.10
2018-08-24T02:30:40.347Z,5.70
2018-08-24T02:33:09.111Z,4.87
2018-08-24T02:35:38.538Z,5.10
2018-08-24T02:38:07.275Z,5.63
2018-08-24T02:40:36.089Z,5.67
2018-08-24T02:43:05.568Z,4.83
2018-08-24T02:45:34.402Z,5.47
2018-08-24T02:48:03.146Z,5.10
2018-08-24T02:50:32.177Z,5.47
2018-08-24T02:53:02.020Z,5.20
2018-08-24T02:55:30.990Z,5.83
2018-08-24T02:58:00.465Z,5.90
2018-08-24T03:00:29.395Z,5.60
2018-08-24T03:02:58.203Z,5.40
2018-08-24T03:05:27.240Z,5.40
2018-08-24T03:07:56.566Z,5.77
2018-08-24T03:10:25.874Z,5.60
2018-08-24T03:12:56.370Z,5.97
2018-08-24T03:15:25.172Z,5.80
2018-08-24T03:17:55.654Z,6.37
2018-08-24T03:20:25.444Z,6.40
2018-08-24T03:22:54.668Z,7.20
2018-08-24T03:25:23.475Z,5.87
2018-08-24T03:27:52.295Z,7.33
2018-08-24T03:30:21.479Z,7.10
2018-08-24T03:32:50.226Z,7.63
2018-08-24T03:35:19.719Z,6.87
2018-08-24T03:37:48.489Z,7.87
2018-08-24T03:40:17.252Z,6.90
2018-08-24T03:42:46.036Z,8.27
2018-08-24T03:45:15.644Z,7.43
2018-08-24T03:47:44.399Z,8.00
2018-08-24T03:50:13.235Z,7.27
2018-08-24T03:52:42.706Z,8.10
2018-08-24T03:55:11.563Z,7.40
2018-08-24T03:57:40.928Z,7.50
2018-08-24T04:00:13.973Z,7.40
2018-08-24T04:02:43.335Z,8.03
2018-08-24T04:05:12.208Z,7.07
2018-08-24T04:07:41.938Z,6.67
2018-08-24T04:10:11.211Z,7.13
2018-08-24T04:12:40.002Z,7.47
2018-08-24T04:15:08.851Z,7.03
2018-08-24T04:17:45.377Z,7.80
2018-08-24T04:20:14.779Z,8.00
2018-08-24T04:22:43.651Z,7.43
2018-08-24T04:25:12.730Z,9.00
2018-08-24T04:27:41.662Z,7.77
2018-08-24T04:30:11.579Z,8.73
2018-08-24T04:32:40.331Z,7.83
2018-08-24T04:35:10.180Z,8.20
2018-08-24T04:37:38.970Z,7.77
2018-08-24T04:40:07.909Z,7.97
2018-08-24T04:42:36.644Z,7.93
2018-08-24T04:45:06.306Z,7.97
2018-08-24T04:47:35.095Z,8.90
2018-08-24T04:50:04.076Z,8.17
2018-08-24T04:52:33.435Z,8.33
2018-08-24T04:55:02.266Z,7.47
2018-08-24T04:57:31.779Z,7.60
2018-08-24T05:00:01.056Z,7.80
2018-08-24T05:02:30.855Z,8.63
2018-08-24T05:05:00.043Z,7.70
2018-08-24T05:07:29.951Z,8.17
2018-08-24T05:10:00.220Z,7.77
2018-08-24T05:12:29.192Z,7.80
2018-08-24T05:14:58.235Z,8.30
2018-08-24T05:17:28.966Z,8.07
2018-08-24T05:19:58.060Z,8.20
2018-08-24T05:22:26.884Z,8.60
2018-08-24T05:24:55.769Z,7.33
2018-08-24T05:27:24.531Z,8.43
2018-08-24T05:29:53.862Z,8.10
2018-08-24T05:32:22.671Z,7.70
2018-08-24T05:34:51.429Z,7.70
2018-08-24T05:37:20.652Z,8.33
2018-08-24T05:39:49.395Z,7.80
2018-08-24T05:42:18.166Z,8.50
2018-08-24T05:44:47.742Z,8.07
2018-08-24T05:47:16.509Z,8.07
2018-08-24T05:49:45.292Z,7.63
2018-08-24T05:55:14.153Z,7.77
2018-08-24T05:57:43.857Z,7.70
2018-08-24T06:00:12.714Z,7.80
2018-08-24T06:02:42.151Z,8.57
2018-08-24T06:05:10.979Z,8.60
2018-08-24T06:07:40.560Z,7.20
2018-08-24T06:10:10.239Z,7.90
2018-08-24T06:12:39.030Z,7.73
2018-08-24T06:15:07.811Z,7.50
2018-08-24T06:17:42.135Z,7.00
2018-08-24T06:20:10.941Z,7.50
2018-08-24T06:22:40.127Z,7.43
2018-08-24T06:25:09.355Z,7.23
2018-08-24T06:27:38.300Z,7.77
2018-08-24T06:30:08.102Z,6.90
2018-08-24T06:32:36.877Z,7.57
2018-08-24T06:35:06.537Z,7.60
2018-08-24T06:37:35.291Z,6.93
2018-08-24T06:40:04.399Z,7.10
2018-08-24T06:42:33.340Z,7.13
2018-08-24T06:45:02.836Z,7.20
2018-08-24T06:47:31.823Z,6.40
2018-08-24T06:50:00.825Z,6.97
2018-08-24T06:52:30.554Z,7.47
2018-08-24T06:54:59.884Z,6.90
2018-08-24T06:57:29.295Z,6.93
2018-08-24T06:59:58.232Z,7.57
2018-08-24T07:02:27.832Z,6.90
2018-08-24T07:04:56.596Z,6.90
2018-08-24T07:07:26.284Z,7.40
2018-08-24T07:09:55.487Z,7.00
2018-08-24T07:12:24.256Z,7.27
2018-08-24T07:14:53.091Z,7.27
2018-08-24T07:17:27.552Z,6.90
2018-08-24T07:19:56.309Z,7.17
2018-08-24T07:22:25.059Z,6.70
2018-08-24T07:24:53.875Z,6.63
2018-08-24T07:27:22.775Z,6.03
2018-08-24T07:29:51.996Z,6.03
2018-08-24T07:32:20.775Z,5.77
2018-08-24T07:34:49.574Z,6.30
2018-08-24T07:37:19.169Z,6.17
2018-08-24T07:39:48.034Z,6.40
2018-08-24T07:42:16.859Z,6.30
2018-08-24T07:44:51.460Z,6.23
2018-08-24T07:47:20.530Z,5.97
2018-08-24T07:49:49.554Z,7.20
2018-08-24T07:52:19.164Z,5.90
2018-08-24T07:54:48.372Z,6.60
2018-08-24T07:57:17.900Z,5.93
2018-08-24T07:59:46.638Z,6.00
2018-08-24T08:02:16.044Z,6.10
2018-08-24T08:04:44.818Z,6.43
2018-08-24T08:07:14.180Z,5.87
2018-08-24T08:09:43.666Z,5.67
2018-08-24T08:12:12.423Z,5.63
2018-08-24T08:14:45.287Z,5.87
2018-08-24T08:17:15.282Z,5.73
2018-08-24T08:19:44.231Z,5.70
2018-08-24T08:22:12.945Z,5.90
2018-08-24T08:24:42.156Z,6.83
2018-08-24T08:27:10.891Z,5.67
2018-08-24T08:29:45.345Z,6.00
2018-08-24T08:32:14.217Z,6.13
2018-08-24T08:34:48.149Z,7.10
2018-08-24T08:37:17.732Z,7.93
2018-08-24T08:39:46.654Z,8.83
2018-08-24T08:42:15.448Z,7.23
2018-08-24T08:44:45.473Z,8.60
2018-08-24T08:47:14.389Z,8.10
2018-08-24T08:49:43.166Z,8.60
2018-08-24T08:52:13.256Z,8.40
2018-08-24T08:54:42.035Z,9.13
2018-08-24T08:57:11.587Z,9.00
2018-08-24T08:59:40.769Z,8.87
2018-08-24T09:02:11.412Z,8.23
2018-08-24T09:04:41.109Z,8.27
2018-08-24T09:07:11.184Z,7.77
2018-08-24T09:09:40.800Z,8.77
2018-08-24T09:12:10.348Z,7.53
2018-08-24T09:14:39.327Z,8.33
2018-08-24T09:17:14.935Z,7.80
2018-08-24T09:19:48.796Z,8.00
2018-08-24T09:22:22.759Z,7.00
2018-08-24T09:24:56.581Z,6.93
2018-08-24T09:27:32.412Z,7.53
2018-08-24T09:30:03.748Z,7.77
2018-08-24T09:32:32.610Z,7.43
2018-08-24T09:35:01.564Z,7.30
2018-08-24T09:37:39.145Z,6.43
2018-08-24T09:40:08.608Z,7.03
2018-08-24T09:42:37.452Z,6.53
2018-08-24T09:45:07.237Z,6.40
2018-08-24T09:47:41.150Z,6.07
2018-08-24T09:50:15.077Z,5.93
2018-08-24T09:52:49.467Z,5.90
2018-08-24T09:55:18.265Z,5.80
2018-08-24T09:57:47.689Z,6.07
2018-08-24T10:00:16.464Z,6.30
2018-08-24T10:02:45.715Z,4.47
2018-08-24T10:05:19.695Z,5.20
2018-08-24T10:07:54.852Z,4.87
2018-08-24T10:10:24.285Z,4.17
2018-08-24T10:12:53.110Z,3.50
2018-08-24T10:15:21.870Z,3.40
2018-08-24T10:17:51.284Z,2.30
2018-08-24T10:20:20.032Z,3.40
2018-08-24T10:22:48.892Z,2.60
2018-08-24T10:25:17.689Z,3.83
2018-08-24T10:27:46.474Z,2.50
2018-08-24T10:30:15.870Z,4.63
2018-08-24T10:32:44.688Z,2.50
2018-08-24T10:35:14.207Z,3.17
2018-08-24T10:37:42.987Z,2.53
2018-08-24T10:40:11.753Z,3.07
2018-08-24T10:42:41.427Z,2.60
2018-08-24T10:45:10.169Z,2.67
2018-08-24T10:47:38.941Z,2.10
2018-08-24T10:50:07.764Z,2.50
2018-08-24T10:52:37.143Z,1.77
2018-08-24T10:55:06.304Z,2.03
2018-08-24T10:57:35.751Z,1.47
2018-08-24T11:00:04.651Z,1.93
2018-08-24T11:02:33.849Z,1.37
2018-08-24T11:05:03.605Z,2.00
2018-08-24T11:07:33.019Z,1.60
2018-08-24T11:10:02.486Z,2.07
2018-08-24T11:12:32.076Z,1.47
2018-08-24T11:15:04.273Z,2.50
2018-08-24T11:17:37.795Z,2.07
2018-08-24T11:20:06.803Z,2.27
2018-08-24T11:22:35.743Z,2.20
2018-08-24T11:25:04.928Z,3.13
2018-08-24T11:27:37.534Z,2.33
2018-08-24T11:30:06.975Z,2.77
2018-08-24T11:32:35.748Z,2.40
2018-08-24T11:35:04.712Z,3.73
2018-08-24T11:37:34.331Z,2.80
2018-08-24T11:40:03.184Z,3.10
2018-08-24T11:42:32.961Z,2.93
2018-08-24T11:45:02.716Z,3.40
2018-08-24T11:47:31.642Z,2.97
2018-08-24T11:50:01.226Z,3.43
2018-08-24T11:52:31.375Z,2.97
2018-08-24T11:55:01.647Z,3.47
2018-08-24T11:57:31.300Z,3.03
2018-08-24T12:00:00.787Z,3.00
2018-08-24T12:02:30.727Z,2.80
2018-08-24T12:05:00.255Z,3.07
2018-08-24T12:07:30.069Z,2.73
2018-08-24T12:10:00.247Z,3.00
2018-08-24T12:12:29.315Z,2.83
2018-08-24T12:14:58.751Z,3.23
2018-08-24T12:17:30.391Z,3.10
2018-08-24T12:19:59.845Z,3.63
2018-08-24T12:22:28.783Z,4.03
2018-08-24T12:24:57.913Z,4.10
2018-08-24T12:27:26.895Z,3.70
2018-08-24T12:29:56.354Z,4.23
2018-08-24T12:32:25.166Z,4.30
2018-08-24T12:34:53.945Z,4.53
2018-08-24T12:37:23.187Z,4.30
2018-08-24T12:39:52.012Z,4.13
2018-08-24T12:42:20.772Z,4.53
2018-08-24T12:44:49.992Z,4.47
2018-08-24T12:47:18.759Z,5.00
2018-08-24T12:49:47.492Z,4.27
2018-08-24T12:52:16.762Z,4.87
2018-08-24T12:54:45.487Z,4.20
2018-08-24T12:57:15.247Z,4.90
2018-08-24T12:59:44.015Z,4.30
2018-08-24T13:02:13.387Z,4.80
2018-08-24T13:04:43.708Z,4.90
2018-08-24T13:07:13.295Z,4.63
2018-08-24T13:09:42.914Z,5.00
2018-08-24T13:12:11.647Z,5.13
2018-08-24T13:14:40.456Z,4.83
2018-08-24T13:17:09.648Z,5.07
2018-08-24T13:19:38.458Z,4.67
2018-08-24T13:22:07.266Z,5.63
2018-08-24T13:24:36.083Z,4.50
2018-08-24T13:27:05.071Z,4.90
2018-08-24T13:29:34.405Z,4.93
2018-08-24T13:32:03.243Z,5.90
2018-08-24T13:34:32.032Z,4.70
2018-08-24T13:37:01.776Z,6.57
2018-08-24T13:39:30.916Z,4.70
2018-08-24T13:42:02.364Z,5.33
2018-08-24T13:44:32.487Z,4.80
2018-08-24T13:47:01.581Z,4.90
2018-08-24T13:49:31.140Z,4.50
2018-08-24T13:52:01.630Z,6.30
2018-08-24T13:54:31.530Z,4.63
2018-08-24T13:57:01.164Z,5.47
2018-08-24T13:59:30.835Z,4.47
2018-08-24T14:02:00.369Z,6.20
2018-08-24T14:04:30.029Z,4.17
2018-08-24T14:06:59.372Z,4.90
2018-08-24T14:09:31.807Z,4.33
2018-08-24T14:12:00.804Z,5.93
2018-08-24T14:14:30.280Z,4.90
2018-08-24T14:17:00.817Z,5.23
2018-08-24T14:19:30.703Z,5.50
2018-08-24T14:22:00.298Z,5.37
2018-08-24T14:24:29.980Z,5.00
2018-08-24T14:26:59.913Z,5.77
2018-08-24T14:29:29.847Z,5.30
2018-08-24T14:31:59.251Z,7.20
2018-08-24T14:34:28.378Z,5.77
2018-08-24T14:36:58.683Z,5.53
2018-08-24T14:39:27.502Z,5.70
2018-08-24T14:41:56.792Z,6.20
2018-08-24T14:44:26.245Z,5.40
2018-08-24T14:46:55.036Z,5.47
2018-08-24T14:49:23.830Z,4.97
2018-08-24T14:51:53.975Z,4.23
2018-08-24T14:54:22.728Z,4.43
2018-08-24T14:56:52.237Z,4.33
2018-08-24T14:59:20.976Z,3.90
2018-08-24T15:01:49.916Z,4.03
2018-08-24T15:04:18.707Z,4.30
2018-08-24T15:06:48.121Z,4.90
2018-08-24T15:09:16.894Z,5.37
2018-08-24T15:11:46.145Z,5.20
2018-08-24T15:14:14.889Z,5.77
2018-08-24T15:16:44.291Z,5.57
2018-08-24T15:19:13.040Z,6.10
2018-08-24T15:21:41.827Z,5.97
2018-08-24T15:24:10.879Z,5.97
2018-08-24T15:26:39.704Z,5.40
2018-08-24T15:29:09.396Z,6.77
2018-08-24T15:31:38.147Z,5.07
2018-08-24T15:34:06.944Z,6.00
2018-08-24T15:36:36.535Z,5.77
2018-08-24T15:39:08.772Z,6.33
2018-08-24T15:41:37.623Z,5.63
2018-08-24T15:44:07.335Z,5.67
2018-08-24T15:46:36.113Z,5.43
2018-08-24T15:49:05.377Z,5.30
2018-08-24T15:51:34.161Z,5.07
2018-08-24T15:54:03.594Z,4.33
2018-08-24T15:56:33.279Z,5.07
2018-08-24T15:59:02.780Z,4.93
2018-08-24T16:01:31.775Z,4.60
2018-08-24T16:04:01.718Z,4.87
2018-08-24T16:06:31.463Z,5.07
2018-08-24T16:09:01.134Z,4.90
2018-08-24T16:11:30.840Z,5.17
2018-08-24T16:13:59.800Z,4.80
2018-08-24T16:16:29.494Z,5.07
2018-08-24T16:18:58.272Z,4.90
2018-08-24T16:21:26.998Z,4.90
2018-08-24T16:23:55.785Z,4.93
2018-08-24T16:26:25.751Z,5.93
2018-08-24T16:28:55.934Z,5.50
2018-08-24T16:31:24.710Z,5.37
2018-08-24T16:33:53.782Z,5.57
2018-08-24T16:36:23.663Z,6.10
2018-08-24T16:38:52.402Z,5.20
2018-08-24T16:41:21.230Z,5.03
2018-08-24T16:43:50.933Z,4.40
2018-08-24T16:46:20.295Z,4.80
2018-08-24T16:48:49.069Z,3.40
2018-08-24T16:51:17.851Z,3.40
2018-08-24T16:53:47.246Z,2.60
2018-08-24T16:56:16.504Z,2.90
2018-08-24T16:58:45.667Z,2.80
2018-08-24T17:01:14.432Z,3.43
2018-08-24T17:03:43.186Z,2.87
2018-08-24T17:06:12.458Z,3.03
2018-08-24T17:08:41.753Z,2.60
2018-08-24T17:11:11.052Z,3.17
2018-08-24T17:13:39.816Z,2.90
2018-08-24T17:16:09.449Z,3.23
2018-08-24T17:18:38.243Z,2.30
2018-08-24T17:21:07.007Z,3.23
2018-08-24T17:23:35.792Z,2.43
2018-08-24T17:26:04.560Z,2.70
2018-08-24T17:28:33.589Z,2.10
2018-08-24T17:31:03.587Z,3.90
2018-08-24T17:33:32.448Z,2.30
2018-08-24T17:36:02.380Z,2.93
2018-08-24T17:38:31.911Z,2.40
2018-08-24T17:41:01.039Z,2.70
2018-08-24T17:43:30.891Z,2.27
2018-08-24T17:46:01.098Z,3.97
2018-08-24T17:48:30.069Z,2.93
2018-08-24T17:50:59.383Z,3.20
2018-08-24T17:53:28.918Z,2.47
2018-08-24T17:55:57.787Z,2.63
2018-08-24T17:58:27.073Z,2.33
2018-08-24T18:00:55.904Z,2.13
2018-08-24T18:03:24.663Z,2.20
2018-08-24T18:05:54.270Z,2.43
2018-08-24T18:08:23.759Z,2.20
2018-08-24T18:10:53.178Z,2.07
2018-08-24T18:13:21.971Z,2.40
2018-08-24T18:15:51.692Z,2.33
2018-08-24T18:18:20.989Z,2.97
2018-08-24T18:20:49.865Z,2.40
2018-08-24T18:23:18.607Z,3.03
2018-08-24T18:25:47.570Z,2.63
2018-08-24T18:28:16.415Z,2.90
2018-08-24T18:30:46.231Z,2.40
2018-08-24T18:33:14.979Z,3.00
2018-08-24T18:35:44.302Z,2.67
2018-08-24T18:38:13.470Z,3.50
2018-08-24T18:40:42.248Z,2.70
2018-08-24T18:43:11.767Z,3.60
2018-08-24T18:45:40.523Z,3.10
2018-08-24T18:48:09.314Z,4.00
2018-08-24T18:50:38.158Z,3.10
2018-08-24T18:53:07.798Z,3.57
2018-08-24T18:55:36.536Z,3.47
2018-08-24T18:58:05.841Z,4.70
2018-08-24T19:00:34.609Z,3.50
2018-08-24T19:03:03.391Z,4.13
2018-08-24T19:05:32.347Z,4.10
2018-08-24T19:08:07.620Z,3.93
2018-08-24T19:10:43.233Z,3.73
2018-08-24T19:13:12.679Z,4.53
2018-08-24T19:15:41.396Z,3.80
2018-08-24T19:18:16.000Z,4.17
2018-08-24T19:20:50.159Z,3.30
2018-08-24T19:23:18.976Z,3.57
2018-08-24T19:25:48.763Z,3.23
2018-08-24T19:28:22.573Z,3.67
2018-08-24T19:30:52.365Z,3.70
2018-08-24T19:33:21.146Z,3.43
2018-08-24T19:35:51.309Z,3.80
2018-08-24T19:38:20.029Z,3.70
2018-08-24T19:40:54.208Z,3.67
2018-08-24T19:43:23.966Z,3.40
2018-08-24T19:45:52.739Z,3.53
2018-08-24T19:48:26.757Z,3.67
2018-08-24T19:50:56.082Z,4.57
2018-08-24T19:53:25.405Z,3.73
2018-08-24T19:55:54.171Z,3.73
2018-08-24T19:58:30.037Z,4.20
2018-08-24T20:00:59.689Z,4.53
2018-08-24T20:03:28.576Z,3.73
2018-08-24T20:06:02.983Z,4.20
2018-08-24T20:08:37.704Z,4.27
2018-08-24T20:11:07.207Z,5.33
2018-08-24T20:13:35.975Z,3.60
2018-08-24T20:16:10.409Z,4.53
2018-08-24T20:18:39.261Z,4.10
2018-08-24T20:21:08.063Z,5.43
2018-08-24T20:23:36.815Z,4.00
2018-08-24T20:26:05.976Z,4.93
2018-08-24T20:28:35.791Z,3.93
2018-08-24T20:31:04.619Z,4.83
2018-08-24T20:33:33.436Z,4.17
2018-08-24T20:36:02.722Z,4.67
2018-08-24T20:38:32.419Z,3.67
2018-08-24T20:41:01.763Z,4.43
2018-08-24T20:43:31.636Z,3.80
2018-08-24T20:46:01.304Z,5.07
2018-08-24T20:48:31.135Z,4.17
2018-08-24T20:51:00.392Z,4.50
2018-08-24T20:53:30.211Z,4.10
2018-08-24T20:55:59.258Z,4.27
2018-08-24T20:58:28.756Z,3.83
2018-08-24T21:00:57.877Z,4.60
2018-08-24T21:03:26.806Z,3.90
2018-08-24T21:05:56.244Z,4.20
2018-08-24T21:08:25.615Z,3.87
2018-08-24T21:10:54.898Z,4.60
2018-08-24T21:13:23.687Z,4.50
2018-08-24T21:15:53.313Z,3.83
2018-08-24T21:18:22.651Z,5.10
2018-08-24T21:20:51.484Z,4.07
2018-08-24T21:23:20.246Z,4.30
2018-08-24T21:25:50.002Z,4.00
2018-08-24T21:28:18.747Z,4.13
2018-08-24T21:30:48.173Z,3.87
2018-08-24T21:33:16.933Z,4.10
2018-08-24T21:35:45.670Z,3.90
2018-08-24T21:38:14.503Z,3.97
2018-08-24T21:40:43.295Z,4.00
2018-08-24T21:43:13.051Z,4.00
2018-08-24T21:45:41.818Z,4.17
2018-08-24T21:48:10.707Z,4.07
2018-08-24T21:50:39.551Z,4.07
2018-08-24T21:53:09.067Z,3.67
2018-08-24T21:55:37.819Z,5.03
2018-08-24T21:58:07.084Z,3.53
2018-08-24T22:00:40.865Z,3.63
2018-08-24T22:03:10.404Z,3.60
2018-08-24T22:05:41.230Z,4.20
2018-08-24T22:08:10.812Z,3.50
2018-08-24T22:10:40.088Z,4.33
2018-08-24T22:13:08.894Z,3.83
2018-08-24T22:15:37.716Z,3.50
2018-08-24T22:18:07.248Z,4.13
2018-08-24T22:20:36.027Z,4.23
2018-08-24T22:23:04.876Z,3.67
2018-08-24T22:25:33.723Z,3.47
2018-08-24T22:28:02.602Z,3.10
2018-08-24T22:30:32.364Z,3.70
2018-08-24T22:33:01.524Z,2.77
2018-08-24T22:35:31.117Z,3.23
2018-08-24T22:38:00.063Z,3.70
2018-08-24T22:40:29.249Z,3.60
2018-08-24T22:42:58.754Z,2.70
2018-08-24T22:45:27.587Z,3.53
2018-08-24T22:47:56.385Z,2.80
2018-08-24T22:50:25.183Z,3.17
2018-08-24T22:52:54.599Z,2.87
2018-08-24T22:55:23.343Z,2.83
2018-08-24T22:57:52.691Z,3.70
2018-08-24T23:00:21.462Z,2.90
2018-08-24T23:02:50.220Z,4.67
2018-08-24T23:05:19.039Z,3.27
2018-08-24T23:07:48.922Z,3.60
2018-08-24T23:10:18.253Z,2.80
2018-08-24T23:12:47.307Z,4.90
2018-08-24T23:15:16.103Z,3.27
2018-08-24T23:17:45.959Z,3.40
2018-08-24T23:20:14.782Z,3.10
2018-08-24T23:22:43.563Z,3.13
2018-08-24T23:25:12.349Z,2.77
2018-08-24T23:27:41.687Z,3.73
2018-08-24T23:30:11.820Z,2.87
2018-08-24T23:32:40.695Z,3.80
2018-08-24T23:35:09.512Z,2.60
2018-08-24T23:37:38.311Z,3.00
2018-08-24T23:40:07.625Z,2.90
2018-08-24T23:42:37.487Z,2.63
2018-08-24T23:45:06.395Z,2.63
2018-08-24T23:47:35.167Z,2.63
2018-08-24T23:50:04.093Z,2.67
2018-08-24T23:52:33.731Z,2.93
2018-08-24T23:55:02.699Z,3.00
2018-08-24T23:57:33.124Z,2.70
